Data for 01/19/2011

Time Sea-Level Adjusted Pressure Absolute Pressure Temperature Relative Humidity Dew Point   
(mb) (inHg) (mb) (inHg) (C) (F) (%) (C) (F)
00:05 1011 29.85 840 24.81 -2.7 27.2 96 -3.3 26.1
00:10 1011 29.85 840 24.81 -2.7 27.1 96 -3.3 26
00:15 1011 29.85 840 24.81 -2.7 27.2 96 -3.2 26.2
00:20 1011 29.85 840 24.81 -2.7 27.2 95 -3.3 26.1
00:25 1011 29.85 840 24.81 -2.8 27 95 -3.4 25.8
00:30 1011 29.85 840 24.81 -2.9 26.8 95 -3.5 25.6
00:35 1011 29.85 840 24.81 -2.9 26.8 95 -3.6 25.6
00:40 1011 29.85 840 24.81 -2.9 26.8 96 -3.5 25.7
00:45 1011 29.85 840 24.81 -2.7 27.1 96 -3.3 26
00:50 1011 29.85 840 24.81 -2.7 27.1 95 -3.4 25.8
00:55 1011 29.85 840 24.81 -2.8 26.9 95 -3.5 25.7
01:00 1011 29.85 840 24.81 -2.7 27.1 96 -3.3 26.1
01:05 1011 29.85 840 24.81 -2.6 27.3 95 -3.2 26.2
01:10 1011 29.85 840 24.81 -2.6 27.4 95 -3.2 26.3
01:15 1011 29.85 840 24.81 -2.6 27.4 96 -3.2 26.3
01:20 1011 29.85 840 24.81 -2.6 27.3 95 -3.3 26.1
01:25 1011 29.85 840 24.81 -2.7 27.1 95 -3.4 25.9
01:30 1011 29.85 840 24.81 -2.8 27 96 -3.4 25.8
01:35 1011 29.85 840 24.81 -2.8 27 95 -3.4 25.8
01:40 1011 29.85 840 24.81 -2.8 26.9 96 -3.4 25.8
01:45 1011 29.85 840 24.81 -2.8 27 95 -3.4 25.8
01:50 1011 29.85 840 24.81 -2.8 26.9 95 -3.5 25.8
01:55 1011 29.85 840 24.81 -2.9 26.8 96 -3.5 25.8
02:00 1011 29.85 840 24.81 -2.9 26.8 96 -3.5 25.7
02:05 1011 29.85 840 24.81 -2.8 26.9 96 -3.5 25.8
02:10 1011 29.85 840 24.81 -2.9 26.8 96 -3.5 25.8
02:15 1011 29.85 841 24.83 -2.9 26.8 95 -3.5 25.7
02:20 1011 29.85 841 24.83 -2.8 26.9 95 -3.5 25.8
02:25 1011 29.85 841 24.83 -2.8 26.9 95 -3.5 25.7
02:30 1011 29.85 841 24.83 -2.8 27 95 -3.5 25.7
02:35 1012 29.88 841 24.83 -2.9 26.8 95 -3.6 25.6
02:40 1012 29.88 841 24.83 -2.9 26.8 95 -3.6 25.6
02:45 1012 29.88 841 24.83 -2.8 26.9 95 -3.6 25.5
02:50 1012 29.88 841 24.83 -2.8 26.9 94 -3.6 25.5
02:55 1012 29.88 841 24.83 -2.8 26.9 94 -3.6 25.5
03:00 1012 29.88 841 24.83 -2.8 26.9 94 -3.6 25.5
03:05 1012 29.88 841 24.83 -2.9 26.8 94 -3.7 25.4
03:10 1012 29.88 841 24.83 -2.9 26.8 94 -3.6 25.4
03:15 1012 29.88 841 24.83 -2.8 27 95 -3.5 25.6
03:20 1012 29.88 841 24.83 -2.7 27.1 94 -3.5 25.6
03:25 1012 29.88 841 24.83 -2.8 27 95 -3.5 25.7
03:30 1012 29.88 841 24.83 -2.7 27.2 95 -3.4 25.8
03:35 1012 29.88 841 24.83 -2.7 27.2 95 -3.4 25.9
03:40 1012 29.88 841 24.83 -2.7 27.2 95 -3.4 25.9
03:45 1012 29.88 841 24.83 -2.6 27.2 95 -3.4 26
03:50 1012 29.88 841 24.83 -2.7 27.2 95 -3.4 25.9
03:55 1012 29.88 841 24.83 -2.7 27.2 95 -3.4 25.9
04:00 1012 29.88 841 24.83 -2.7 27.1 95 -3.4 25.9
04:05 1012 29.88 841 24.83 -2.8 27 95 -3.4 25.8
04:10 1012 29.88 842 24.86 -2.9 26.9 95 -3.5 25.7
04:15 1012 29.88 842 24.86 -2.9 26.8 96 -3.5 25.7
04:20 1012 29.88 842 24.86 -3 26.7 96 -3.6 25.6
04:25 1013 29.91 842 24.86 -3 26.6 96 -3.6 25.5
04:30 1013 29.91 842 24.86 -3 26.6 96 -3.6 25.5
04:35 1013 29.91 842 24.86 -3 26.5 96 -3.6 25.5
04:40 1013 29.91 842 24.86 -3 26.5 96 -3.6 25.5
04:45 1013 29.91 842 24.86 -3 26.5 96 -3.6 25.4
04:50 1013 29.91 842 24.86 -3.1 26.5 95 -3.8 25.2
04:55 1013 29.91 842 24.86 -4 24.8 92 -5.2 22.7
05:00 1013 29.91 842 24.86 -4.6 23.7 93 -5.6 21.9
05:05 1013 29.91 842 24.86 -4.9 23.2 92 -6 21.1
05:10 1013 29.91 842 24.86 -5 23 92 -6.1 21
05:15 1013 29.91 842 24.86 -5 22.9 93 -6.1 21.1
05:20 1013 29.91 843 24.89 -5.2 22.7 93 -6.1 21.1
05:25 1013 29.91 843 24.89 -5.3 22.5 94 -6 21.1
05:30 1013 29.91 843 24.89 -5.3 22.4 94 -6.1 21.1
05:35 1014 29.94 843 24.89 -5.4 22.3 95 -6.1 21
05:40 1014 29.94 843 24.89 -5.4 22.3 94 -6.1 20.9
05:45 1014 29.94 843 24.89 -5.4 22.3 94 -6.2 20.8
05:50 1014 29.94 843 24.89 -5.4 22.2 95 -6.2 20.9
05:55 1014 29.94 843 24.89 -5.4 22.3 94 -6.3 20.7
06:00 1014 29.94 843 24.89 -5.3 22.5 93 -6.3 20.6
06:05 1014 29.94 843 24.89 -5.2 22.6 92 -6.4 20.5
06:10 1014 29.94 843 24.89 -5.2 22.7 91 -6.4 20.5
06:15 1014 29.94 843 24.89 -5.2 22.7 90 -6.5 20.3
06:20 1014 29.94 843 24.89 -5.2 22.7 90 -6.6 20.2
06:25 1014 29.94 843 24.89 -5.1 22.8 90 -6.5 20.4
06:30 1014 29.94 843 24.89 -5.1 22.8 91 -6.4 20.5
06:35 1014 29.94 843 24.89 -5.1 22.8 92 -6.2 20.9
06:40 1014 29.94 844 24.92 -5 23 92 -6.2 20.9
06:45 1014 29.94 844 24.92 -5 22.9 93 -6 21.1
06:50 1014 29.94 844 24.92 -5.1 22.9 93 -6.1 21.1
06:55 1015 29.97 844 24.92 -5.1 22.7 93 -6.1 21
07:00 1015 29.97 844 24.92 -5.1 22.8 94 -6 21.2
07:05 1015 29.97 844 24.92 -5.2 22.7 93 -6.1 21
07:10 1015 29.97 844 24.92 -5.1 22.7 93 -6.1 21.1
07:15 1015 29.97 844 24.92 -5.1 22.8 93 -6 21.2
07:20 1015 29.97 844 24.92 -5.1 22.8 93 -6 21.1
07:25 1015 29.97 844 24.92 -5.1 22.8 94 -6 21.2
07:30 1015 29.97 844 24.92 -5 22.9 92 -6.1 21
07:35 1015 29.97 844 24.92 -5 23 93 -5.9 21.3
07:40 1015 29.97 844 24.92 -4.8 23.3 93 -5.7 21.7
07:45 1015 29.97 844 24.92 -4.7 23.6 92 -5.8 21.6
07:50 1015 29.97 844 24.92 -4.6 23.8 90 -5.9 21.3
07:55 1015 29.97 845 24.95 -4.7 23.5 89 -6.3 20.6
08:00 1015 29.97 845 24.95 -4.8 23.4 88 -6.5 20.3
08:05 1015 29.97 845 24.95 -4.8 23.3 88 -6.6 20.2
08:10 1015 29.97 845 24.95 -4.9 23.2 88 -6.6 20.1
08:15 1015 29.97 845 24.95 -4.9 23.1 86 -7 19.4
08:20 1016 30 845 24.95 -5.3 22.5 87 -7.1 19.2
08:25 1016 30 845 24.95 -5.5 22.2 87 -7.3 18.8
08:30 1016 30 845 24.95 -5.4 22.3 87 -7.2 19
08:35 1016 30 845 24.95 -5.1 22.7 85 -7.3 18.9
08:40 1016 30 845 24.95 -5.2 22.7 84 -7.5 18.6
08:45 1016 30 845 24.95 -5.1 22.8 85 -7.3 18.9
08:50 1016 30 845 24.95 -5 22.9 84 -7.4 18.7
08:55 1016 30 845 24.95 -5 22.9 84 -7.4 18.7
09:00 1016 30 846 24.98 -5.1 22.9 84 -7.3 18.8
09:05 1017 30.03 846 24.98 -5.1 22.9 84 -7.3 18.9
09:10 1017 30.03 846 24.98 -5 23 84 -7.3 18.9
09:15 1017 30.03 846 24.98 -5.1 22.9 85 -7.2 19.1
09:20 1017 30.03 846 24.98 -5.2 22.7 85 -7.3 18.8
09:25 1017 30.03 846 24.98 -5.3 22.5 87 -7.2 19.1
09:30 1017 30.03 846 24.98 -5.4 22.4 88 -7.1 19.2
09:35 1017 30.03 846 24.98 -5.4 22.3 87 -7.3 18.9
09:40 1017 30.03 846 24.98 -5.7 21.8 88 -7.4 18.7
09:45 1017 30.03 846 24.98 -5.6 21.9 87 -7.5 18.5
09:50 1017 30.03 846 24.98 -5.5 22.2 85 -7.6 18.3
09:55 1017 30.03 846 24.98 -5.3 22.4 85 -7.5 18.5
10:00 1017 30.03 846 24.98 -5.2 22.6 84 -7.5 18.5
10:05 1017 30.03 847 25.01 -5.2 22.7 84 -7.4 18.7
10:10 1017 30.03 847 25.01 -5.4 22.2 86 -7.4 18.7
10:15 1017 30.03 847 25.01 -5.3 22.4 85 -7.4 18.7
10:20 1017 30.03 847 25.01 -5.1 22.8 84 -7.4 18.8
10:25 1018 30.06 847 25.01 -5.1 22.7 85 -7.4 18.8
10:30 1018 30.06 847 25.01 -5 23 83 -7.4 18.7
10:35 1018 30.06 847 25.01 -4.9 23.2 82 -7.4 18.7
10:40 1018 30.06 847 25.01 -4.8 23.4 82 -7.5 18.6
10:45 1018 30.06 847 25.01 -4.8 23.3 82 -7.4 18.7
10:50 1018 30.06 847 25.01 -4.6 23.8 81 -7.4 18.7
10:55 1018 30.06 847 25.01 -4.2 24.5 78 -7.4 18.6
11:00 1018 30.06 847 25.01 -4 24.7 79 -7.2 19
11:05 1018 30.06 847 25.01 -3.4 25.9 73 -7.5 18.5
11:10 1018 30.06 847 25.01 -3.7 25.4 76 -7.3 18.9
11:15 1018 30.06 847 25.01 -3.5 25.7 74 -7.4 18.6
11:20 1018 30.06 847 25.01 -3.6 25.6 75 -7.3 18.8
11:25 1018 30.06 847 25.01 -3 26.7 73 -7.2 19
11:30 1018 30.06 847 25.01 -2.8 26.9 72 -7.2 19
11:35 1018 30.06 848 25.04 -2.8 26.9 71 -7.3 18.8
11:40 1018 30.06 848 25.04 -2.8 27 71 -7.3 18.9
11:45 1018 30.06 848 25.04 -2.3 27.8 70 -7.1 19.3
11:50 1018 30.06 848 25.04 -2.2 28 69 -7.1 19.2
11:55 1018 30.06 848 25.04 -2.2 28 71 -6.8 19.7
12:00 1018 30.06 848 25.04 -2.2 28.1 69 -7.1 19.2
12:05 1019 30.09 848 25.04 -2.2 28 69 -7.3 18.9
12:10 1019 30.09 848 25.04 -2.6 27.4 69 -7.6 18.4
12:15 1019 30.09 848 25.04 -2.4 27.7 67 -7.6 18.2
12:20 1018 30.06 848 25.04 -1.8 28.8 66 -7.2 19
12:25 1019 30.09 848 25.04 -1.9 28.6 67 -7.2 19
12:30 1019 30.09 848 25.04 -2.4 27.7 68 -7.5 18.5
12:35 1019 30.09 848 25.04 -2.4 27.7 67 -7.6 18.3
12:40 1019 30.09 848 25.04 -1.7 28.9 65 -7.4 18.6
12:45 1019 30.09 848 25.04 -2 28.5 68 -7.1 19.3
12:50 1019 30.09 848 25.04 -2.1 28.3 67 -7.4 18.6
12:55 1019 30.09 848 25.04 -2 28.3 69 -7.1 19.3
13:00 1019 30.09 848 25.04 -2.6 27.3 71 -7.2 19
13:05 1019 30.09 848 25.04 -3.2 26.3 71 -7.8 18
13:10 1019 30.09 848 25.04 -3.3 26.1 70 -7.9 17.7
13:15 1019 30.09 848 25.04 -3.1 26.4 69 -7.9 17.7
13:20 1019 30.09 848 25.04 -2.5 27.4 68 -7.7 18.2
13:25 1019 30.09 848 25.04 -1.8 28.8 65 -7.5 18.4
13:30 1019 30.09 848 25.04 -1.5 29.3 64 -7.4 18.6
13:35 1019 30.09 848 25.04 -1.9 28.6 62 -8.2 17.3
13:40 1019 30.09 848 25.04 -2.1 28.2 63 -8.2 17.2
13:45 1019 30.09 848 25.04 -1.7 29 61 -8.3 17
13:50 1019 30.09 848 25.04 -1.1 30.1 57 -8.5 16.6
13:55 1019 30.09 848 25.04 -0.7 30.7 58 -7.9 17.7
14:00 1019 30.09 848 25.04 -1.3 29.7 57 -8.7 16.3
14:05 1019 30.09 848 25.04 -1.9 28.5 62 -8.4 16.9
14:10 1019 30.09 848 25.04 -2.1 28.3 61 -8.5 16.7
14:15 1019 30.09 848 25.04 -2 28.4 59 -9 15.9
14:20 1019 30.09 848 25.04 -1.9 28.6 63 -8 17.6
14:25 1019 30.09 848 25.04 -1.4 29.5 58 -8.5 16.6
14:30 1019 30.09 848 25.04 -1.1 30.1 59 -8.1 17.4
14:35 1019 30.09 848 25.04 -1.3 29.6 59 -8.3 17.1
14:40 1019 30.09 848 25.04 -1 30.1 59 -8 17.6
14:45 1019 30.09 848 25.04 -1.6 29.2 61 -8.1 17.4
14:50 1019 30.09 848 25.04 -2 28.4 62 -8.4 17
14:55 1019 30.09 848 25.04 -2.4 27.8 64 -8.2 17.2
15:00 1019 30.09 848 25.04 -2.1 28.1 60 -8.8 16.1
15:05 1019 30.09 848 25.04 -0.8 30.5 57 -8.2 17.2
15:10 1019 30.09 848 25.04 -0.3 31.5 54 -8.6 16.6
15:15 1019 30.09 849 25.07 -0.9 30.3 60 -7.7 18.2
15:20 1019 30.09 849 25.07 -1.6 29.2 60 -8.4 16.8
15:25 1019 30.09 849 25.07 -1.5 29.4 59 -8.4 16.9
15:30 1020 30.12 849 25.07 -1.3 29.7 59 -8.3 17.1
15:35 1020 30.12 849 25.07 -1.8 28.8 61 -8.3 17.1
15:40 1020 30.12 849 25.07 -1.8 28.8 62 -8.1 17.4
15:45 1020 30.12 849 25.07 -2 28.4 60 -8.7 16.3
15:50 1020 30.12 849 25.07 -1.9 28.6 60 -8.7 16.4
15:55 1020 30.12 849 25.07 -2 28.4 61 -8.5 16.7
16:00 1020 30.12 849 25.07 -2.1 28.2 61 -8.7 16.4
16:05 1020 30.12 849 25.07 -2.2 28 63 -8.4 16.9
16:10 1020 30.12 849 25.07 -2.8 27 64 -8.6 16.6
16:15 1020 30.12 849 25.07 -2.9 26.8 65 -8.6 16.5
16:20 1020 30.12 850 25.1 -2.4 27.7 63 -8.5 16.7
16:25 1020 30.12 850 25.1 -2.6 27.4 65 -8.3 17
16:30 1021 30.15 850 25.1 -2.6 27.4 65 -8.2 17.2
16:35 1021 30.15 850 25.1 -2.8 26.9 67 -8.1 17.5
16:40 1021 30.15 850 25.1 -2.8 26.9 66 -8.3 17.1
16:45 1021 30.15 850 25.1 -2.8 27 65 -8.4 16.9
16:50 1021 30.15 850 25.1 -3 26.6 63 -9.1 15.6
16:55 1021 30.15 850 25.1 -2.8 27 59 -9.7 14.5
17:00 1021 30.15 850 25.1 -2.9 26.7 58 -10 14
17:05 1021 30.15 850 25.1 -3.2 26.3 60 -9.8 14.3
17:10 1021 30.15 850 25.1 -3.3 26.1 61 -9.7 14.6
17:15 1021 30.15 850 25.1 -3.5 25.7 61 -10 14.1
17:20 1021 30.15 850 25.1 -3.7 25.4 61 -10.2 13.6
17:25 1021 30.15 851 25.13 -3.8 25.2 61 -10.2 13.6
17:30 1022 30.18 851 25.13 -3.9 24.9 60 -10.5 13.1
17:35 1022 30.18 851 25.13 -4 24.9 58 -11.1 12.1
17:40 1022 30.18 851 25.13 -3.9 25 55 -11.6 11
17:45 1022 30.18 851 25.13 -3.9 25.1 54 -11.8 10.8
17:50 1022 30.18 851 25.13 -4 24.8 55 -11.7 10.9
17:55 1022 30.18 851 25.13 -4.1 24.5 54 -12 10.4
18:00 1022 30.18 852 25.16 -4.1 24.6 53 -12.4 9.6
18:05 1022 30.18 852 25.16 -4.1 24.7 56 -11.7 11
18:10 1022 30.18 852 25.16 -4.3 24.3 55 -12.1 10.2
18:15 1022 30.18 852 25.16 -4.5 23.9 55 -12.2 10.1
18:20 1022 30.18 852 25.16 -4.6 23.8 56 -12.1 10.3
18:25 1022 30.18 852 25.16 -4.7 23.6 56 -12.3 9.9
18:30 1022 30.18 852 25.16 -4.8 23.4 55 -12.6 9.4
18:35 1022 30.18 852 25.16 -4.9 23.3 55 -12.6 9.3
18:40 1023 30.21 852 25.16 -4.9 23.2 55 -12.6 9.3
18:45 1023 30.21 852 25.16 -5 23 54 -13 8.7
18:50 1023 30.21 852 25.16 -5 23.1 52 -13.3 8
18:55 1022 30.18 852 25.16 -5 23 54 -13 8.5
19:00 1022 30.18 852 25.16 -5.1 22.8 54 -13 8.5
19:05 1022 30.18 851 25.13 -5.1 22.9 54 -13 8.6
19:10 1022 30.18 852 25.16 -5.2 22.7 55 -12.8 8.9
19:15 1022 30.18 852 25.16 -5.2 22.6 55 -13 8.7
19:20 1023 30.21 852 25.16 -5.6 21.9 57 -12.9 8.8
19:25 1023 30.21 852 25.16 -6.5 20.2 58 -13.6 7.6
19:30 1023 30.21 852 25.16 -6.5 20.3 57 -13.7 7.3
19:35 1023 30.21 852 25.16 -6.4 20.4 57 -13.7 7.3
19:40 1023 30.21 852 25.16 -6.1 21 55 -13.8 7.2
19:45 1023 30.21 852 25.16 -5.6 21.9 55 -13.4 7.9
19:50 1023 30.21 852 25.16 -5.4 22.3 52 -13.6 7.4
19:55 1023 30.21 852 25.16 -5.2 22.7 52 -13.6 7.5
20:00 1023 30.21 852 25.16 -5 22.9 52 -13.5 7.7
20:05 1023 30.21 852 25.16 -5.1 22.9 54 -13.1 8.4
20:10 1023 30.21 852 25.16 -5.1 22.7 53 -13.3 8.1
20:15 1023 30.21 852 25.16 -5.2 22.7 55 -13 8.7
20:20 1023 30.21 852 25.16 -5.3 22.6 54 -13.1 8.5
20:25 1023 30.21 852 25.16 -5.3 22.4 56 -12.9 8.7
20:30 1023 30.21 852 25.16 -5.4 22.2 57 -12.6 9.3
20:35 1023 30.21 852 25.16 -5.4 22.2 56 -12.9 8.8
20:40 1023 30.21 852 25.16 -5.4 22.4 56 -12.9 8.8
20:45 1023 30.21 852 25.16 -5.3 22.5 55 -12.9 8.7
20:50 1023 30.21 852 25.16 -5.3 22.5 56 -12.8 8.9
20:55 1023 30.21 852 25.16 -5.2 22.6 57 -12.6 9.4
21:00 1023 30.21 852 25.16 -5.2 22.6 57 -12.5 9.4
21:05 1023 30.21 852 25.16 -5.2 22.7 55 -13 8.7
21:10 1023 30.21 852 25.16 -5 23.1 54 -12.9 8.8
21:15 1023 30.21 853 25.19 -4.9 23.1 55 -12.7 9.1
21:20 1023 30.21 853 25.19 -4.9 23.2 56 -12.3 9.8
21:25 1023 30.21 853 25.19 -5 23 60 -11.7 10.9
21:30 1024 30.24 853 25.19 -5.2 22.6 61 -11.7 11
21:35 1024 30.24 853 25.19 -5.4 22.2 63 -11.4 11.5
21:40 1024 30.24 853 25.19 -5.4 22.3 65 -10.9 12.3
21:45 1024 30.24 853 25.19 -5.4 22.3 67 -10.6 12.9
21:50 1024 30.24 853 25.19 -5.5 22 68 -10.5 13.2
21:55 1024 30.24 853 25.19 -5.6 21.9 68 -10.6 12.9
22:00 1024 30.24 853 25.19 -5.4 22.2 66 -10.9 12.4
22:05 1024 30.24 853 25.19 -5.3 22.4 63 -11.4 11.5
22:10 1024 30.24 853 25.19 -5.1 22.8 59 -11.9 10.6
22:15 1024 30.24 853 25.19 -5 22.9 60 -11.7 11
22:20 1024 30.24 853 25.19 -5.1 22.8 61 -11.5 11.2
22:25 1024 30.24 853 25.19 -5.1 22.8 61 -11.6 11.1
22:30 1024 30.24 853 25.19 -5.3 22.5 62 -11.4 11.5
22:35 1024 30.24 853 25.19 -5.4 22.3 62 -11.5 11.3
22:40 1024 30.24 853 25.19 -5.4 22.2 61 -11.9 10.6
22:45 1024 30.24 853 25.19 -5.5 22.2 61 -11.8 10.8
22:50 1024 30.24 853 25.19 -5.5 22 61 -12 10.5
22:55 1024 30.24 853 25.19 -5.7 21.8 60 -12.2 10.1
23:00 1024 30.24 853 25.19 -5.7 21.8 58 -12.6 9.4
23:05 1024 30.24 853 25.19 -5.6 21.9 57 -12.8 9
23:10 1024 30.24 853 25.19 -5.8 21.6 58 -12.9 8.8
23:15 1024 30.24 853 25.19 -5.9 21.3 57 -13 8.5
23:20 1024 30.24 853 25.19 -6.3 20.6 59 -13.1 8.4
23:25 1024 30.24 853 25.19 -6.8 19.8 58 -13.7 7.3
23:30 1024 30.24 853 25.19 -7 19.4 59 -13.6 7.5
23:35 1024 30.24 853 25.19 -7 19.4 60 -13.6 7.5
23:40 1024 30.24 853 25.19 -7.1 19.3 59 -13.9 7.1
23:45 1024 30.24 853 25.19 -6.9 19.6 59 -13.7 7.4
23:50 1024 30.24 853 25.19 -6.8 19.7 58 -13.8 7.2
23:55 1024 30.24 853 25.19 -6.7 19.9 58 -13.6 7.4
24:00 1024 30.24 853 25.19 -6.9 19.6 58 -13.7 7.3